Logo AVAMET Logo AVAMET
Benvolgut visitant, si us plau, ingressa Recuperar contrasenya
AVAMET paisatges
Union Alcoyana

Cullera Sant Antoni

Dades diàries. Acumulats / Últims 30 dies disponibles

Data Temperatura (°C) Humitat rel. (%) Pressió rel. (hPa) Vent (km/h) Precipitació
Mínima Mitjana Màxima Amplitud
tèrmica
Mínima Mitjana Màxima Mínima Mitjana Màxima Predom. Mitjana Ràfega
màxima
Total
(mm)
Índex-n
Mínima Mitjana Màxima Mínima Mitjana Màxima n
0 a 1
P0 max
mm 5'
Dades mensuals acumulades fins l'últim dia disponible
04/2024 10,8 14,0 15,9 17,2 17,7 21,1 26,6 15,8 16 63 90 1.004 1.019 1.030   13,0 49,9 0,0
Dades anuals acumulades fins l'últim dia disponible
2024 5,4 12,1 19,1 15,0 12,3 18,4 26,6 21,2 16 64 96 988 1.017 1.037   15,9 78,9 41,8
Últims 30 dies disponibles
14-04-2024 15,8     18,7     21,9 6,1 35 59 75 1.020 1.023 1.025 ENE 8,0 19,3 0,0
13-04-2024 14,5     18,1     21,2 6,7 42 58 74 1.024 1.026 1.028 ENE 7,4 14,5 0,0
12-04-2024 13,3     17,6     21,6 8,3 35 56 84 1.027 1.029 1.030 SE 9,6 20,9 0,0
11-04-2024 13,2     15,5     17,7 4,5 66 74 79 1.024 1.027 1.030 SE 9,4 22,5 0,0
10-04-2024 13,1     16,1     18,6 5,5 36 53 75 1.022 1.025 1.028 SSE 12,4 29,0 0,0
09-04-2024 13,3     17,4     23,1 9,8 16 44 62 1.013 1.021 1.027 SO 19,0 45,1 0,0
08-04-2024 15,3     19,3     26,6 11,3 29 71 90 1.007 1.009 1.013 SE 13,5 38,6 0,0
07-04-2024 15,4     17,0     20,2 4,8 68 82 89 1.011 1.014 1.017 S 9,2 16,1 0,0
06-04-2024 14,3     15,5     18,4 4,1 74 85 90 1.016 1.017 1.018 S 10,9 20,9 0,0
05-04-2024 13,6     16,1     17,8 4,2 72 81 88 1.016 1.017 1.019 ESE 10,6 27,4 0,0
04-04-2024 15,9     18,9     22,4 6,5 39 58 77 1.015 1.017 1.019 S 13,7 22,5 0,0
03-04-2024 15,0     19,1     24,8 9,8 34 53 75 1.015 1.016 1.018 SSO 15,9 43,5 0,0
02-04-2024 12,6     16,0     19,6 7,0 35 59 74 1.014 1.017 1.020 SSO 16,4 27,4 0,0
01-04-2024 10,8     15,5     20,9 10,1 32 49 66 1.004 1.010 1.017 OSO 25,6 49,9 0,0
31-03-2024 12,1     14,0     16,5 4,4 49 65 86 995 998 1.004 SSO 18,2 48,3 4,8 0,48 0,80
30-03-2024 11,7     14,4     18,6 6,9 44 61 75 993 996 999 SE 12,9 30,6 0,0
29-03-2024 13,5     19,2     26,2 12,7 29 53 72 992 997 1.001 SSO 19,5 62,8 0,4
28-03-2024 14,7     18,4     21,9 7,2 41 61 77 996 1.001 1.004 SSO 25,8 62,8 0,6
27-03-2024 10,3     16,9     22,1 11,8 35 48 68 994 997 999 SO 39,9 69,2 0,0
26-03-2024 11,9     14,3     16,6 4,7 34 56 90 991 992 995 OSO 26,3 49,9 0,8
25-03-2024 9,9     14,2     15,0 5,1 85 89 96 ESE 7,1 25,6 7,8 0,55 2,50
24-03-2024 13,3     14,8     16,9 3,6 75 81 91 1.009 1.014 1.016 SSE 6,6 25,6 0,4
23-03-2024 13,3     16,3     18,5 5,2 56 74 92 1.016 1.017 1.019 SE 3,7 20,8 0,0
22-03-2024 13,2     15,5     20,2 7,0 66 84 92 1.016 1.019 1.023 E 5,9 20,8 0,0
21-03-2024 14,4     15,1     16,8 2,4 78 85 90 1.020 1.023 1.025 SE 14,4 25,7 0,0
20-03-2024 13,8     15,1     17,0 3,2 76 84 88 1.015 1.017 1.020 SSE 10,2 20,9 0,0
19-03-2024 12,4     14,3     16,3 3,9 86 91 93 1.014 1.015 1.017 E 14,0 19,3 0,0
18-03-2024 12,4     13,7     16,3 3,9 75 89 95 1.017 1.017 1.018 ENE 5,0 12,9 0,0
17-03-2024 14,6     17,2     22,3 7,7 51 72 88 1.017 1.020 1.024 ESE 10,2 22,5 0,0
16-03-2024 14,6     17,4     21,1 6,5 49 67 88 1.022 1.023 1.025 SE 10,9 24,1 0,0
Últims 13 mesos disponibles
03/2024 8,4 11,9 14,7 15,0 15,0 18,5 26,2 17,8 34 65 91 992 1.011 1.023 OSO 17,8 72,4 16,2
02/2024 9,1 11,8 16,1 14,8 14,7 18,2 24,3 15,2 41 62 84 995 1.018 1.033 OSO 16,7 66,0 9,8
01/2024 5,4 11,8 19,1 14,3 12,3 17,1 24,0 18,6 39 64 91 1.004 1.021 1.035 SO 14,5 78,9 15,6
12/2023 7,0 11,4 18,3 14,4 12,7 17,7 26,1 19,1 41 60 82 1.000 1.022 1.059 SO 8,0 56,3 2,4
11/2023 10,1 15,0 21,1 18,2 15,2 22,0 29,0 18,9 38 57 93 1.002 1.015 1.025 OSO 21,0 82,1 0,0
10/2023 15,2 19,5 22,3 22,2 20,9 25,3 30,1 14,9 48 67 84 996 1.014 1.024 S 11,5 72,4 1,2
09/2023 17,2 21,4 25,4 24,2 24,8 26,9 30,1 12,9 46 74 87 1.007 1.015 1.022 SSE 9,6 54,7 183,4
08/2023 19,0 24,4 26,2 27,2 26,8 30,2 37,7 18,7 42 72 82 1.007 1.014 1.019 S 11,0 65,6 27,8
07/2023 22,3 25,2 27,3 27,2 26,8 29,5 34,5 12,2 65 80 86 1.007 1.013 1.018 SSE 9,7 40,2 13,6
06/2023 18,1 21,4 24,8 23,9 22,1 26,9 33,0 14,9 59 74 83 1.007 1.013 1.020 SSE 6,7 46,4 25,0
05/2023 13,4 16,7 18,6 19,2 18,8 21,8 25,9 12,5 45 71 84 1.010 1.014 1.019 SSE 14,7 51,6 72,4
04/2023 10,6 14,4 18,0 17,8 16,8 21,4 30,2 19,6 36 66 84 1.005 1.014 1.019 SE 14,5 57,8 0,0
03/2023 3,4 12,4 20,4 16,3 11,2 20,8 31,2 27,8 32 59 86 1.008 1.015 1.023 SE 8,0 61,2 3,4
Tots els anys disponibles
2023 3,4 16,6 27,3 19,5 8,7 22,7 37,7 34,3 32 67 93 996 1.016 1.059 SSE 10,6 82,1 375,1
2022 5,6 16,9 28,0 19,7 9,8 22,3 38,8 33,2 31 71 92 999 1.017 1.032 S 5,7 67,6 797,7
2021 4,6 16,2 27,4 18,7 8,2 21,8 37,5 32,9 32 73 91 1.000 1.015 1.032 S 4,6 96,0 850,9
2018 4,9 15,9 26,7 18,7 8,1 21,5 33,7 28,8 40 67 90 991 1.013 1.033 0,5 75,0 736,6
2017
2014 5,0 16,2 26,0 18,7 11,0 21,6 35,0 30,0 34 71 90 990 1.013 1.031 3,9 82,0 296,6
2013 4,4 15,8 20,2 18,6 18,0 21,4 34,7 30,3 54 67 76 1.005 1.013 1.017 4,7 76,0 556,5
2010 1,4 15,0 26,1 17,5 6,0 20,3 39,9 38,5 6,1 72,4 421,2
2009 2,6 17,3 26,6 19,9 7,9 22,8 36,4 33,8 6,1 74,0 862,5
Temperatura (°C)
Humitat relativa (%)
Velocitat del vent i ràfega màxima (km/h)
Direcció del vent (°)
Pressió (hPa)
Precipitació (mm)
Nota sobre les dades: s'avisa a l'usuari de la provisionalitat i no oficialitat d'aquestes dades
Logo AVAMET blanc
Web allotjada a Sollutia
Llicència de Creative CommonsLa web d'AVAMET i els seus continguts estan subjectes a una llicència de
Reconeixement - No Comercial - Compartir igual
Avís legal - Política de privacitat - Política de cookies - Canviar configuració privacitat
NOVES ESTACIONS: Quart de Poblet - los Hornillos (Soci), Buñol - Partior (Soci), la Pobla de Farnals - Platja (Ajuntament/Soci), la Pobla de Farnals (Ajuntament/Soci), Calp (Ajuntament(Soci),  Carlet (Ajuntament/Soci), l'Alcora - la Foia (Ajuntament/Soci), Sant Vicent del Raspeig - las Ocas (Soci), Alcoi - IES Cotes Baixes (Soci), San Antonio de Benagéber - CELSAB (Soci), la Todolella (Ajuntament/Soci), Artana - Caseta de les Creus (Soci), Suera - Res. Espadà (Soci), Onda - Col·legi Virgen del Carmen (Soci), Catarroja - Col·legi Larrodé (Soci), València - Patraix (Soci), Ontinyent - Torre de Torús (Soci), Requena - El Rebollar (Casa Ejarque) (Soci), Elx - la Foia (Soci), Onda - el Salvador (Ajuntament/Soci), Paiporta (Ajuntament/Soci) - - -